sensor_id;sensor_type;location;lat;lon;timestamp;P1;durP1;ratioP1;P2;durP2;ratioP2
23068;SDS011;11702;50.856;4.348;2022-10-17T00:02:00;10.30;;;7.32;;
23068;SDS011;11702;50.856;4.348;2022-10-17T00:04:26;12.55;;;6.95;;
23068;SDS011;11702;50.856;4.348;2022-10-17T00:06:51;9.73;;;6.60;;
23068;SDS011;11702;50.856;4.348;2022-10-17T00:09:17;7.93;;;6.07;;
23068;SDS011;11702;50.856;4.348;2022-10-17T00:11:43;9.75;;;6.68;;
23068;SDS011;11702;50.856;4.348;2022-10-17T00:14:08;8.85;;;6.85;;
23068;SDS011;11702;50.856;4.348;2022-10-17T00:16:34;12.43;;;7.25;;
23068;SDS011;11702;50.856;4.348;2022-10-17T00:19:02;9.68;;;6.70;;
23068;SDS011;11702;50.856;4.348;2022-10-17T00:21:29;10.27;;;6.57;;
23068;SDS011;11702;50.856;4.348;2022-10-17T00:23:55;12.88;;;6.90;;
23068;SDS011;11702;50.856;4.348;2022-10-17T00:26:21;13.43;;;7.32;;
23068;SDS011;11702;50.856;4.348;2022-10-17T00:28:47;12.73;;;7.30;;
23068;SDS011;11702;50.856;4.348;2022-10-17T00:31:13;13.07;;;7.57;;
23068;SDS011;11702;50.856;4.348;2022-10-17T00:33:41;9.60;;;7.35;;
23068;SDS011;11702;50.856;4.348;2022-10-17T00:38:37;9.35;;;6.35;;
23068;SDS011;11702;50.856;4.348;2022-10-17T00:41:05;11.63;;;7.07;;
23068;SDS011;11702;50.856;4.348;2022-10-17T00:46:19;11.07;;;6.60;;
23068;SDS011;11702;50.856;4.348;2022-10-17T00:48:45;12.82;;;6.07;;
23068;SDS011;11702;50.856;4.348;2022-10-17T00:51:14;9.13;;;6.80;;
23068;SDS011;11702;50.856;4.348;2022-10-17T00:53:40;11.48;;;7.05;;
23068;SDS011;11702;50.856;4.348;2022-10-17T00:56:06;11.48;;;7.38;;
23068;SDS011;11702;50.856;4.348;2022-10-17T00:58:32;11.02;;;6.55;;
23068;SDS011;11702;50.856;4.348;2022-10-17T01:00:58;8.93;;;6.38;;
23068;SDS011;11702;50.856;4.348;2022-10-17T01:03:23;11.40;;;6.47;;
23068;SDS011;11702;50.856;4.348;2022-10-17T01:05:49;12.73;;;7.20;;
23068;SDS011;11702;50.856;4.348;2022-10-17T01:08:15;11.32;;;6.95;;
23068;SDS011;11702;50.856;4.348;2022-10-17T01:13:22;8.82;;;6.53;;
23068;SDS011;11702;50.856;4.348;2022-10-17T01:16:08;10.32;;;6.85;;
23068;SDS011;11702;50.856;4.348;2022-10-17T01:29:56;13.27;;;6.72;;
23068;SDS011;11702;50.856;4.348;2022-10-17T01:32:36;12.63;;;7.72;;
23068;SDS011;11702;50.856;4.348;2022-10-17T01:37:58;14.25;;;7.47;;
23068;SDS011;11702;50.856;4.348;2022-10-17T01:41:26;15.05;;;7.53;;
23068;SDS011;11702;50.856;4.348;2022-10-17T01:43:46;13.48;;;7.35;;
23068;SDS011;11702;50.856;4.348;2022-10-17T01:46:28;12.52;;;7.63;;
23068;SDS011;11702;50.856;4.348;2022-10-17T01:49:02;14.73;;;7.28;;
23068;SDS011;11702;50.856;4.348;2022-10-17T01:51:38;14.13;;;7.40;;
23068;SDS011;11702;50.856;4.348;2022-10-17T01:54:22;13.27;;;7.47;;
23068;SDS011;11702;50.856;4.348;2022-10-17T01:56:55;12.70;;;6.75;;
23068;SDS011;11702;50.856;4.348;2022-10-17T01:59:33;13.30;;;6.85;;
23068;SDS011;11702;50.856;4.348;2022-10-17T02:02:05;10.68;;;6.47;;
23068;SDS011;11702;50.856;4.348;2022-10-17T02:04:31;8.32;;;6.15;;
23068;SDS011;11702;50.856;4.348;2022-10-17T02:07:04;12.18;;;6.82;;
23068;SDS011;11702;50.856;4.348;2022-10-17T02:09:31;10.85;;;6.72;;
23068;SDS011;11702;50.856;4.348;2022-10-17T02:23:26;10.63;;;6.05;;
23068;SDS011;11702;50.856;4.348;2022-10-17T02:26:12;12.18;;;5.90;;
23068;SDS011;11702;50.856;4.348;2022-10-17T02:34:05;12.73;;;6.15;;
23068;SDS011;11702;50.856;4.348;2022-10-17T02:36:35;8.57;;;5.88;;
23068;SDS011;11702;50.856;4.348;2022-10-17T02:39:05;11.02;;;5.93;;
23068;SDS011;11702;50.856;4.348;2022-10-17T02:41:32;9.85;;;6.25;;
23068;SDS011;11702;50.856;4.348;2022-10-17T02:44:00;11.65;;;6.68;;
23068;SDS011;11702;50.856;4.348;2022-10-17T02:46:27;10.88;;;5.85;;
23068;SDS011;11702;50.856;4.348;2022-10-17T02:49:00;8.70;;;5.03;;
23068;SDS011;11702;50.856;4.348;2022-10-17T02:51:42;10.23;;;5.97;;
23068;SDS011;11702;50.856;4.348;2022-10-17T02:54:17;14.80;;;5.68;;
23068;SDS011;11702;50.856;4.348;2022-10-17T02:56:50;8.55;;;5.80;;
23068;SDS011;11702;50.856;4.348;2022-10-17T02:59:20;11.50;;;5.78;;
23068;SDS011;11702;50.856;4.348;2022-10-17T03:01:49;11.75;;;6.10;;
23068;SDS011;11702;50.856;4.348;2022-10-17T03:04:15;10.98;;;5.70;;
23068;SDS011;11702;50.856;4.348;2022-10-17T03:06:42;11.27;;;5.63;;
23068;SDS011;11702;50.856;4.348;2022-10-17T03:09:10;8.23;;;5.72;;
23068;SDS011;11702;50.856;4.348;2022-10-17T03:11:36;7.50;;;5.47;;
23068;SDS011;11702;50.856;4.348;2022-10-17T03:14:02;9.18;;;5.95;;
23068;SDS011;11702;50.856;4.348;2022-10-17T03:16:28;9.35;;;5.13;;
23068;SDS011;11702;50.856;4.348;2022-10-17T03:18:53;7.10;;;5.53;;
23068;SDS011;11702;50.856;4.348;2022-10-17T03:21:19;13.20;;;5.88;;
23068;SDS011;11702;50.856;4.348;2022-10-17T03:23:45;7.55;;;5.22;;
23068;SDS011;11702;50.856;4.348;2022-10-17T03:26:10;11.80;;;5.82;;
23068;SDS011;11702;50.856;4.348;2022-10-17T03:28:36;8.27;;;5.20;;
23068;SDS011;11702;50.856;4.348;2022-10-17T03:31:06;9.88;;;5.57;;
23068;SDS011;11702;50.856;4.348;2022-10-17T03:33:36;8.23;;;5.15;;
23068;SDS011;11702;50.856;4.348;2022-10-17T03:36:06;8.90;;;5.38;;
23068;SDS011;11702;50.856;4.348;2022-10-17T03:38:33;8.02;;;6.03;;
23068;SDS011;11702;50.856;4.348;2022-10-17T03:40:59;9.48;;;5.63;;
23068;SDS011;11702;50.856;4.348;2022-10-17T03:43:25;8.07;;;5.15;;
23068;SDS011;11702;50.856;4.348;2022-10-17T03:45:51;13.65;;;6.35;;
23068;SDS011;11702;50.856;4.348;2022-10-17T03:48:17;9.18;;;5.55;;
23068;SDS011;11702;50.856;4.348;2022-10-17T03:50:42;10.55;;;5.32;;
23068;SDS011;11702;50.856;4.348;2022-10-17T03:53:08;12.40;;;6.25;;
23068;SDS011;11702;50.856;4.348;2022-10-17T03:55:35;8.35;;;5.70;;
23068;SDS011;11702;50.856;4.348;2022-10-17T03:58:01;8.27;;;6.18;;
23068;SDS011;11702;50.856;4.348;2022-10-17T04:00:26;11.55;;;5.68;;
23068;SDS011;11702;50.856;4.348;2022-10-17T04:02:52;11.73;;;5.97;;
23068;SDS011;11702;50.856;4.348;2022-10-17T04:05:18;9.57;;;5.70;;
23068;SDS011;11702;50.856;4.348;2022-10-17T04:07:43;9.10;;;5.50;;
23068;SDS011;11702;50.856;4.348;2022-10-17T04:10:09;10.23;;;6.07;;
23068;SDS011;11702;50.856;4.348;2022-10-17T04:12:35;12.32;;;6.05;;
23068;SDS011;11702;50.856;4.348;2022-10-17T04:15:02;10.73;;;5.00;;
23068;SDS011;11702;50.856;4.348;2022-10-17T04:17:29;9.02;;;5.43;;
23068;SDS011;11702;50.856;4.348;2022-10-17T04:19:55;8.40;;;5.38;;
23068;SDS011;11702;50.856;4.348;2022-10-17T04:22:21;10.98;;;5.15;;
23068;SDS011;11702;50.856;4.348;2022-10-17T04:24:46;14.05;;;5.47;;
23068;SDS011;11702;50.856;4.348;2022-10-17T04:27:12;8.90;;;5.60;;
23068;SDS011;11702;50.856;4.348;2022-10-17T04:29:38;8.57;;;4.80;;
23068;SDS011;11702;50.856;4.348;2022-10-17T04:32:03;9.35;;;5.35;;
23068;SDS011;11702;50.856;4.348;2022-10-17T04:34:29;7.82;;;5.28;;
23068;SDS011;11702;50.856;4.348;2022-10-17T04:36:54;10.98;;;5.25;;
23068;SDS011;11702;50.856;4.348;2022-10-17T04:39:20;10.20;;;5.40;;
23068;SDS011;11702;50.856;4.348;2022-10-17T04:41:46;10.57;;;5.28;;
23068;SDS011;11702;50.856;4.348;2022-10-17T04:44:11;6.07;;;5.15;;
23068;SDS011;11702;50.856;4.348;2022-10-17T04:46:37;12.35;;;5.85;;
23068;SDS011;11702;50.856;4.348;2022-10-17T04:49:03;8.35;;;5.53;;
23068;SDS011;11702;50.856;4.348;2022-10-17T04:51:28;10.60;;;5.97;;
23068;SDS011;11702;50.856;4.348;2022-10-17T04:53:54;6.65;;;4.97;;
23068;SDS011;11702;50.856;4.348;2022-10-17T04:56:21;8.95;;;5.03;;
23068;SDS011;11702;50.856;4.348;2022-10-17T04:58:48;10.45;;;4.97;;
23068;SDS011;11702;50.856;4.348;2022-10-17T05:01:19;10.68;;;5.75;;
23068;SDS011;11702;50.856;4.348;2022-10-17T05:03:45;10.27;;;5.60;;
23068;SDS011;11702;50.856;4.348;2022-10-17T05:06:13;7.95;;;5.45;;
23068;SDS011;11702;50.856;4.348;2022-10-17T05:08:40;11.05;;;5.70;;
23068;SDS011;11702;50.856;4.348;2022-10-17T05:13:42;9.45;;;5.45;;
23068;SDS011;11702;50.856;4.348;2022-10-17T05:16:08;10.52;;;6.03;;
23068;SDS011;11702;50.856;4.348;2022-10-17T05:18:34;11.75;;;5.60;;
23068;SDS011;11702;50.856;4.348;2022-10-17T05:21:02;7.72;;;6.13;;
23068;SDS011;11702;50.856;4.348;2022-10-17T05:23:28;7.05;;;5.65;;
23068;SDS011;11702;50.856;4.348;2022-10-17T05:25:54;8.27;;;5.38;;
23068;SDS011;11702;50.856;4.348;2022-10-17T05:28:21;8.90;;;5.90;;
23068;SDS011;11702;50.856;4.348;2022-10-17T05:30:47;13.63;;;5.82;;
23068;SDS011;11702;50.856;4.348;2022-10-17T05:33:13;10.43;;;5.75;;
23068;SDS011;11702;50.856;4.348;2022-10-17T05:35:38;11.00;;;6.20;;
23068;SDS011;11702;50.856;4.348;2022-10-17T05:38:04;10.77;;;5.40;;
23068;SDS011;11702;50.856;4.348;2022-10-17T05:40:29;8.82;;;5.20;;
23068;SDS011;11702;50.856;4.348;2022-10-17T05:42:55;13.55;;;5.38;;
23068;SDS011;11702;50.856;4.348;2022-10-17T05:45:21;8.80;;;4.80;;
23068;SDS011;11702;50.856;4.348;2022-10-17T05:47:47;10.73;;;5.40;;
23068;SDS011;11702;50.856;4.348;2022-10-17T05:50:12;10.63;;;4.80;;
23068;SDS011;11702;50.856;4.348;2022-10-17T05:52:38;6.55;;;4.68;;
23068;SDS011;11702;50.856;4.348;2022-10-17T05:55:04;6.43;;;4.70;;
23068;SDS011;11702;50.856;4.348;2022-10-17T05:57:30;8.63;;;5.47;;
23068;SDS011;11702;50.856;4.348;2022-10-17T05:59:56;6.68;;;4.65;;
23068;SDS011;11702;50.856;4.348;2022-10-17T06:02:21;11.45;;;5.32;;
23068;SDS011;11702;50.856;4.348;2022-10-17T06:04:47;9.98;;;5.03;;
23068;SDS011;11702;50.856;4.348;2022-10-17T06:07:14;7.32;;;4.97;;
23068;SDS011;11702;50.856;4.348;2022-10-17T06:09:40;7.72;;;5.47;;
23068;SDS011;11702;50.856;4.348;2022-10-17T06:12:06;10.38;;;5.40;;
23068;SDS011;11702;50.856;4.348;2022-10-17T06:14:33;8.40;;;4.65;;
23068;SDS011;11702;50.856;4.348;2022-10-17T06:17:00;9.38;;;5.50;;
23068;SDS011;11702;50.856;4.348;2022-10-17T06:19:26;7.32;;;4.95;;
23068;SDS011;11702;50.856;4.348;2022-10-17T06:21:51;8.18;;;5.25;;
23068;SDS011;11702;50.856;4.348;2022-10-17T06:24:17;10.95;;;5.50;;
23068;SDS011;11702;50.856;4.348;2022-10-17T06:26:43;8.65;;;5.20;;
23068;SDS011;11702;50.856;4.348;2022-10-17T06:29:08;9.60;;;5.00;;
23068;SDS011;11702;50.856;4.348;2022-10-17T06:31:34;7.30;;;4.90;;
23068;SDS011;11702;50.856;4.348;2022-10-17T06:34:00;6.13;;;4.95;;
23068;SDS011;11702;50.856;4.348;2022-10-17T06:36:25;10.10;;;5.05;;
23068;SDS011;11702;50.856;4.348;2022-10-17T06:38:51;14.25;;;5.22;;
23068;SDS011;11702;50.856;4.348;2022-10-17T06:41:17;11.80;;;5.65;;
23068;SDS011;11702;50.856;4.348;2022-10-17T06:43:44;10.10;;;5.18;;
23068;SDS011;11702;50.856;4.348;2022-10-17T06:46:11;12.88;;;5.65;;
23068;SDS011;11702;50.856;4.348;2022-10-17T06:48:38;17.90;;;5.60;;
23068;SDS011;11702;50.856;4.348;2022-10-17T06:51:04;6.80;;;5.25;;
23068;SDS011;11702;50.856;4.348;2022-10-17T06:53:31;10.20;;;4.80;;
23068;SDS011;11702;50.856;4.348;2022-10-17T06:55:58;9.85;;;4.85;;
23068;SDS011;11702;50.856;4.348;2022-10-17T06:58:31;14.15;;;5.60;;
23068;SDS011;11702;50.856;4.348;2022-10-17T07:01:05;11.95;;;5.63;;
23068;SDS011;11702;50.856;4.348;2022-10-17T07:03:35;10.90;;;5.43;;
23068;SDS011;11702;50.856;4.348;2022-10-17T07:06:01;10.80;;;5.43;;
23068;SDS011;11702;50.856;4.348;2022-10-17T07:08:27;7.22;;;4.97;;
23068;SDS011;11702;50.856;4.348;2022-10-17T07:10:54;10.13;;;4.68;;
23068;SDS011;11702;50.856;4.348;2022-10-17T07:13:20;7.07;;;3.92;;
23068;SDS011;11702;50.856;4.348;2022-10-17T07:15:46;12.13;;;3.80;;
23068;SDS011;11702;50.856;4.348;2022-10-17T07:18:12;8.43;;;4.13;;
23068;SDS011;11702;50.856;4.348;2022-10-17T07:20:37;7.75;;;4.00;;
23068;SDS011;11702;50.856;4.348;2022-10-17T07:23:04;5.55;;;3.80;;
23068;SDS011;11702;50.856;4.348;2022-10-17T07:25:29;10.80;;;3.97;;
23068;SDS011;11702;50.856;4.348;2022-10-17T07:27:55;12.48;;;5.25;;
23068;SDS011;11702;50.856;4.348;2022-10-17T07:30:21;10.77;;;5.63;;
23068;SDS011;11702;50.856;4.348;2022-10-17T07:32:47;12.25;;;5.32;;
23068;SDS011;11702;50.856;4.348;2022-10-17T07:35:13;13.35;;;6.18;;
23068;SDS011;11702;50.856;4.348;2022-10-17T07:37:39;12.20;;;6.15;;
23068;SDS011;11702;50.856;4.348;2022-10-17T07:40:07;12.15;;;5.85;;
23068;SDS011;11702;50.856;4.348;2022-10-17T07:42:35;9.60;;;5.53;;
23068;SDS011;11702;50.856;4.348;2022-10-17T07:45:03;8.48;;;5.55;;
23068;SDS011;11702;50.856;4.348;2022-10-17T07:47:30;11.60;;;5.82;;
23068;SDS011;11702;50.856;4.348;2022-10-17T07:49:59;16.58;;;6.03;;
23068;SDS011;11702;50.856;4.348;2022-10-17T07:52:25;8.43;;;5.80;;
23068;SDS011;11702;50.856;4.348;2022-10-17T07:54:50;10.50;;;5.57;;
23068;SDS011;11702;50.856;4.348;2022-10-17T07:57:16;8.98;;;6.40;;
23068;SDS011;11702;50.856;4.348;2022-10-17T07:59:42;8.27;;;5.70;;
23068;SDS011;11702;50.856;4.348;2022-10-17T08:02:13;12.70;;;6.60;;
23068;SDS011;11702;50.856;4.348;2022-10-17T08:04:45;8.35;;;5.57;;
23068;SDS011;11702;50.856;4.348;2022-10-17T08:07:11;20.52;;;7.95;;
23068;SDS011;11702;50.856;4.348;2022-10-17T08:09:37;11.15;;;5.50;;
23068;SDS011;11702;50.856;4.348;2022-10-17T08:12:03;9.48;;;5.22;;
23068;SDS011;11702;50.856;4.348;2022-10-17T08:14:29;8.65;;;5.38;;
23068;SDS011;11702;50.856;4.348;2022-10-17T08:16:55;9.23;;;5.68;;
23068;SDS011;11702;50.856;4.348;2022-10-17T08:19:20;14.77;;;6.60;;
23068;SDS011;11702;50.856;4.348;2022-10-17T08:21:46;10.75;;;5.82;;
23068;SDS011;11702;50.856;4.348;2022-10-17T08:24:14;16.17;;;8.02;;
23068;SDS011;11702;50.856;4.348;2022-10-17T08:26:40;14.05;;;7.85;;
23068;SDS011;11702;50.856;4.348;2022-10-17T09:03:10;12.32;;;9.77;;
23068;SDS011;11702;50.856;4.348;2022-10-17T09:06:16;24.02;;;9.45;;
23068;SDS011;11702;50.856;4.348;2022-10-17T09:12:13;13.20;;;8.77;;
23068;SDS011;11702;50.856;4.348;2022-10-17T09:21:04;14.15;;;8.02;;
23068;SDS011;11702;50.856;4.348;2022-10-17T09:23:51;13.40;;;8.43;;
23068;SDS011;11702;50.856;4.348;2022-10-17T09:26:43;13.02;;;7.43;;
23068;SDS011;11702;50.856;4.348;2022-10-17T09:29:40;13.85;;;8.32;;
23068;SDS011;11702;50.856;4.348;2022-10-17T09:32:13;11.40;;;8.10;;
23068;SDS011;11702;50.856;4.348;2022-10-17T09:34:45;12.77;;;8.75;;
23068;SDS011;11702;50.856;4.348;2022-10-17T09:37:16;14.25;;;8.23;;
23068;SDS011;11702;50.856;4.348;2022-10-17T09:39:50;13.45;;;7.82;;
23068;SDS011;11702;50.856;4.348;2022-10-17T09:42:19;14.25;;;8.70;;
23068;SDS011;11702;50.856;4.348;2022-10-17T09:47:58;15.32;;;8.05;;
23068;SDS011;11702;50.856;4.348;2022-10-17T09:51:29;19.90;;;8.63;;
23068;SDS011;11702;50.856;4.348;2022-10-17T10:02:25;13.82;;;8.57;;
23068;SDS011;11702;50.856;4.348;2022-10-17T10:05:33;10.85;;;8.05;;
23068;SDS011;11702;50.856;4.348;2022-10-17T10:11:05;11.98;;;7.72;;
23068;SDS011;11702;50.856;4.348;2022-10-17T10:13:40;14.73;;;8.18;;
23068;SDS011;11702;50.856;4.348;2022-10-17T10:16:20;11.88;;;7.93;;
23068;SDS011;11702;50.856;4.348;2022-10-17T10:18:54;10.77;;;8.05;;
23068;SDS011;11702;50.856;4.348;2022-10-17T10:21:24;18.90;;;9.25;;
23068;SDS011;11702;50.856;4.348;2022-10-17T10:26:43;16.60;;;9.40;;
23068;SDS011;11702;50.856;4.348;2022-10-17T10:34:52;18.52;;;8.32;;
23068;SDS011;11702;50.856;4.348;2022-10-17T10:37:24;14.68;;;7.85;;
23068;SDS011;11702;50.856;4.348;2022-10-17T10:40:15;14.82;;;8.27;;
23068;SDS011;11702;50.856;4.348;2022-10-17T10:42:45;13.13;;;7.60;;
23068;SDS011;11702;50.856;4.348;2022-10-17T10:48:03;16.67;;;7.97;;
23068;SDS011;11702;50.856;4.348;2022-10-17T10:50:46;16.17;;;7.80;;
23068;SDS011;11702;50.856;4.348;2022-10-17T10:58:40;11.65;;;7.65;;
23068;SDS011;11702;50.856;4.348;2022-10-17T11:06:44;11.15;;;6.15;;
23068;SDS011;11702;50.856;4.348;2022-10-17T11:09:25;16.08;;;6.63;;
23068;SDS011;11702;50.856;4.348;2022-10-17T11:12:16;13.27;;;7.40;;
23068;SDS011;11702;50.856;4.348;2022-10-17T11:14:50;11.10;;;6.90;;
23068;SDS011;11702;50.856;4.348;2022-10-17T11:17:29;13.57;;;7.10;;
23068;SDS011;11702;50.856;4.348;2022-10-17T11:20:06;14.63;;;6.50;;
23068;SDS011;11702;50.856;4.348;2022-10-17T11:22:59;13.13;;;6.55;;
23068;SDS011;11702;50.856;4.348;2022-10-17T11:25:37;8.68;;;6.22;;
23068;SDS011;11702;50.856;4.348;2022-10-17T11:28:14;15.65;;;6.60;;
23068;SDS011;11702;50.856;4.348;2022-10-17T11:30:47;10.07;;;6.88;;
23068;SDS011;11702;50.856;4.348;2022-10-17T11:36:04;10.65;;;7.78;;
23068;SDS011;11702;50.856;4.348;2022-10-17T11:44:47;15.20;;;7.25;;
23068;SDS011;11702;50.856;4.348;2022-10-17T11:50:15;14.38;;;7.07;;
23068;SDS011;11702;50.856;4.348;2022-10-17T11:53:19;16.02;;;6.60;;
23068;SDS011;11702;50.856;4.348;2022-10-17T11:55:54;15.20;;;7.10;;
23068;SDS011;11702;50.856;4.348;2022-10-17T11:58:46;12.10;;;7.13;;
23068;SDS011;11702;50.856;4.348;2022-10-17T12:01:40;15.23;;;6.80;;
23068;SDS011;11702;50.856;4.348;2022-10-17T12:04:52;15.27;;;7.13;;
23068;SDS011;11702;50.856;4.348;2022-10-17T12:07:18;13.68;;;7.47;;
23068;SDS011;11702;50.856;4.348;2022-10-17T12:09:58;12.32;;;6.47;;
23068;SDS011;11702;50.856;4.348;2022-10-17T12:12:43;11.98;;;6.38;;
23068;SDS011;11702;50.856;4.348;2022-10-17T12:17:54;11.15;;;6.70;;
23068;SDS011;11702;50.856;4.348;2022-10-17T12:20:31;10.80;;;7.40;;
23068;SDS011;11702;50.856;4.348;2022-10-17T12:23:16;13.70;;;6.40;;
23068;SDS011;11702;50.856;4.348;2022-10-17T12:39:41;15.55;;;7.07;;
23068;SDS011;11702;50.856;4.348;2022-10-17T12:49:47;9.57;;;6.82;;
23068;SDS011;11702;50.856;4.348;2022-10-17T12:55:16;11.52;;;6.38;;
23068;SDS011;11702;50.856;4.348;2022-10-17T13:00:17;15.15;;;8.02;;
23068;SDS011;11702;50.856;4.348;2022-10-17T13:02:54;12.25;;;7.28;;
23068;SDS011;11702;50.856;4.348;2022-10-17T13:05:27;9.05;;;6.80;;
23068;SDS011;11702;50.856;4.348;2022-10-17T13:07:58;9.35;;;6.75;;
23068;SDS011;11702;50.856;4.348;2022-10-17T13:10:27;10.20;;;7.17;;
23068;SDS011;11702;50.856;4.348;2022-10-17T13:13:05;14.07;;;7.15;;
23068;SDS011;11702;50.856;4.348;2022-10-17T13:15:44;14.75;;;8.35;;
23068;SDS011;11702;50.856;4.348;2022-10-17T13:18:25;14.60;;;6.90;;
23068;SDS011;11702;50.856;4.348;2022-10-17T13:23:34;6.93;;;6.07;;
23068;SDS011;11702;50.856;4.348;2022-10-17T13:26:14;8.35;;;5.65;;
23068;SDS011;11702;50.856;4.348;2022-10-17T13:28:59;11.55;;;5.20;;
23068;SDS011;11702;50.856;4.348;2022-10-17T13:31:54;8.80;;;5.47;;
23068;SDS011;11702;50.856;4.348;2022-10-17T13:34:31;8.57;;;4.90;;
23068;SDS011;11702;50.856;4.348;2022-10-17T13:37:02;12.43;;;5.13;;
23068;SDS011;11702;50.856;4.348;2022-10-17T13:39:33;10.05;;;5.10;;
23068;SDS011;11702;50.856;4.348;2022-10-17T13:42:04;12.90;;;5.18;;
23068;SDS011;11702;50.856;4.348;2022-10-17T13:44:32;8.80;;;5.20;;
23068;SDS011;11702;50.856;4.348;2022-10-17T13:46:58;7.28;;;4.25;;
23068;SDS011;11702;50.856;4.348;2022-10-17T13:52:03;6.60;;;4.85;;
23068;SDS011;11702;50.856;4.348;2022-10-17T13:54:36;9.07;;;4.72;;
23068;SDS011;11702;50.856;4.348;2022-10-17T14:00:04;7.65;;;4.45;;
23068;SDS011;11702;50.856;4.348;2022-10-17T14:02:35;10.77;;;3.90;;
23068;SDS011;11702;50.856;4.348;2022-10-17T14:07:37;10.88;;;4.68;;
23068;SDS011;11702;50.856;4.348;2022-10-17T14:12:54;5.70;;;3.80;;
23068;SDS011;11702;50.856;4.348;2022-10-17T14:15:21;4.68;;;3.40;;
23068;SDS011;11702;50.856;4.348;2022-10-17T14:17:53;5.00;;;3.55;;
23068;SDS011;11702;50.856;4.348;2022-10-17T14:20:47;7.90;;;3.60;;
23068;SDS011;11702;50.856;4.348;2022-10-17T14:23:29;7.40;;;3.78;;
23068;SDS011;11702;50.856;4.348;2022-10-17T14:26:05;8.30;;;4.00;;
23068;SDS011;11702;50.856;4.348;2022-10-17T14:28:33;9.55;;;4.13;;
23068;SDS011;11702;50.856;4.348;2022-10-17T14:31:09;8.18;;;3.80;;
23068;SDS011;11702;50.856;4.348;2022-10-17T14:33:55;6.40;;;3.25;;
23068;SDS011;11702;50.856;4.348;2022-10-17T14:36:29;7.20;;;3.75;;
23068;SDS011;11702;50.856;4.348;2022-10-17T14:38:57;9.48;;;4.72;;
23068;SDS011;11702;50.856;4.348;2022-10-17T14:41:27;8.23;;;4.43;;
23068;SDS011;11702;50.856;4.348;2022-10-17T14:43:59;7.28;;;3.75;;
23068;SDS011;11702;50.856;4.348;2022-10-17T14:46:30;7.57;;;3.40;;
23068;SDS011;11702;50.856;4.348;2022-10-17T14:49:07;6.35;;;3.53;;
23068;SDS011;11702;50.856;4.348;2022-10-17T14:54:37;8.02;;;3.47;;
23068;SDS011;11702;50.856;4.348;2022-10-17T14:59:58;7.63;;;4.00;;
23068;SDS011;11702;50.856;4.348;2022-10-17T15:02:24;4.93;;;3.00;;
23068;SDS011;11702;50.856;4.348;2022-10-17T15:04:52;10.48;;;3.45;;
23068;SDS011;11702;50.856;4.348;2022-10-17T15:07:18;10.82;;;5.90;;
23068;SDS011;11702;50.856;4.348;2022-10-17T15:09:46;7.07;;;3.47;;
23068;SDS011;11702;50.856;4.348;2022-10-17T15:12:15;6.93;;;3.10;;
23068;SDS011;11702;50.856;4.348;2022-10-17T15:14:43;5.13;;;3.40;;
23068;SDS011;11702;50.856;4.348;2022-10-17T15:17:16;8.05;;;3.80;;
23068;SDS011;11702;50.856;4.348;2022-10-17T15:19:44;6.35;;;3.70;;
23068;SDS011;11702;50.856;4.348;2022-10-17T15:22:11;6.18;;;3.72;;
23068;SDS011;11702;50.856;4.348;2022-10-17T15:24:37;6.00;;;3.50;;
23068;SDS011;11702;50.856;4.348;2022-10-17T15:27:06;10.65;;;4.30;;
23068;SDS011;11702;50.856;4.348;2022-10-17T15:29:39;10.23;;;3.92;;
23068;SDS011;11702;50.856;4.348;2022-10-17T15:32:05;10.88;;;4.60;;
23068;SDS011;11702;50.856;4.348;2022-10-17T15:34:30;14.23;;;4.40;;
23068;SDS011;11702;50.856;4.348;2022-10-17T15:36:56;10.88;;;4.68;;
23068;SDS011;11702;50.856;4.348;2022-10-17T15:39:22;8.30;;;4.55;;
23068;SDS011;11702;50.856;4.348;2022-10-17T15:41:48;7.72;;;4.03;;
23068;SDS011;11702;50.856;4.348;2022-10-17T15:44:15;7.55;;;4.05;;
23068;SDS011;11702;50.856;4.348;2022-10-17T15:46:41;11.73;;;4.75;;
23068;SDS011;11702;50.856;4.348;2022-10-17T15:49:11;8.80;;;3.92;;
23068;SDS011;11702;50.856;4.348;2022-10-17T15:51:38;10.48;;;7.47;;
23068;SDS011;11702;50.856;4.348;2022-10-17T15:54:04;8.25;;;5.22;;
23068;SDS011;11702;50.856;4.348;2022-10-17T15:56:31;8.15;;;4.65;;
23068;SDS011;11702;50.856;4.348;2022-10-17T15:59:02;7.85;;;4.82;;
23068;SDS011;11702;50.856;4.348;2022-10-17T16:01:30;8.65;;;4.45;;
23068;SDS011;11702;50.856;4.348;2022-10-17T16:03:57;6.32;;;3.92;;
23068;SDS011;11702;50.856;4.348;2022-10-17T16:06:23;5.60;;;3.75;;
23068;SDS011;11702;50.856;4.348;2022-10-17T16:08:49;7.53;;;4.53;;
23068;SDS011;11702;50.856;4.348;2022-10-17T16:11:23;16.23;;;9.13;;
23068;SDS011;11702;50.856;4.348;2022-10-17T16:14:02;25.15;;;17.55;;
23068;SDS011;11702;50.856;4.348;2022-10-17T16:16:29;9.57;;;4.25;;
23068;SDS011;11702;50.856;4.348;2022-10-17T16:18:56;9.45;;;4.10;;
23068;SDS011;11702;50.856;4.348;2022-10-17T16:21:24;8.73;;;4.10;;
23068;SDS011;11702;50.856;4.348;2022-10-17T16:23:52;12.48;;;4.53;;
23068;SDS011;11702;50.856;4.348;2022-10-17T16:26:18;11.10;;;6.05;;
23068;SDS011;11702;50.856;4.348;2022-10-17T16:28:44;10.55;;;4.35;;
23068;SDS011;11702;50.856;4.348;2022-10-17T16:31:52;11.48;;;4.20;;
23068;SDS011;11702;50.856;4.348;2022-10-17T16:34:01;8.38;;;4.70;;
23068;SDS011;11702;50.856;4.348;2022-10-17T16:36:28;7.50;;;4.20;;
23068;SDS011;11702;50.856;4.348;2022-10-17T16:38:53;9.60;;;4.53;;
23068;SDS011;11702;50.856;4.348;2022-10-17T16:41:28;6.70;;;4.03;;
23068;SDS011;11702;50.856;4.348;2022-10-17T16:43:56;7.78;;;4.50;;
23068;SDS011;11702;50.856;4.348;2022-10-17T16:46:23;8.23;;;4.53;;
23068;SDS011;11702;50.856;4.348;2022-10-17T16:48:50;11.65;;;5.20;;
23068;SDS011;11702;50.856;4.348;2022-10-17T16:51:17;9.40;;;5.38;;
23068;SDS011;11702;50.856;4.348;2022-10-17T16:53:44;9.40;;;5.55;;
23068;SDS011;11702;50.856;4.348;2022-10-17T16:56:12;10.95;;;5.93;;
23068;SDS011;11702;50.856;4.348;2022-10-17T16:58:40;8.60;;;5.60;;
23068;SDS011;11702;50.856;4.348;2022-10-17T17:01:08;7.43;;;5.18;;
23068;SDS011;11702;50.856;4.348;2022-10-17T17:03:40;17.30;;;5.80;;
23068;SDS011;11702;50.856;4.348;2022-10-17T17:06:07;7.88;;;5.20;;
23068;SDS011;11702;50.856;4.348;2022-10-17T17:08:36;7.63;;;5.68;;
23068;SDS011;11702;50.856;4.348;2022-10-17T17:11:04;9.80;;;5.70;;
23068;SDS011;11702;50.856;4.348;2022-10-17T17:13:31;14.63;;;6.28;;
23068;SDS011;11702;50.856;4.348;2022-10-17T17:16:04;11.68;;;6.05;;
23068;SDS011;11702;50.856;4.348;2022-10-17T17:18:37;14.40;;;8.27;;
23068;SDS011;11702;50.856;4.348;2022-10-17T17:21:04;12.95;;;6.25;;
23068;SDS011;11702;50.856;4.348;2022-10-17T17:23:47;12.38;;;6.35;;
23068;SDS011;11702;50.856;4.348;2022-10-17T17:26:15;11.57;;;6.60;;
23068;SDS011;11702;50.856;4.348;2022-10-17T17:28:43;11.25;;;6.25;;
23068;SDS011;11702;50.856;4.348;2022-10-17T17:31:20;11.77;;;5.97;;
23068;SDS011;11702;50.856;4.348;2022-10-17T17:33:49;9.88;;;6.45;;
23068;SDS011;11702;50.856;4.348;2022-10-17T17:36:47;11.77;;;6.78;;
23068;SDS011;11702;50.856;4.348;2022-10-17T17:39:53;16.40;;;8.15;;
23068;SDS011;11702;50.856;4.348;2022-10-17T17:42:20;16.00;;;7.93;;
23068;SDS011;11702;50.856;4.348;2022-10-17T17:44:48;11.27;;;7.18;;
23068;SDS011;11702;50.856;4.348;2022-10-17T17:47:18;13.03;;;8.43;;
23068;SDS011;11702;50.856;4.348;2022-10-17T17:50:13;10.65;;;7.32;;
23068;SDS011;11702;50.856;4.348;2022-10-17T17:52:43;11.65;;;7.60;;
23068;SDS011;11702;50.856;4.348;2022-10-17T17:55:14;13.60;;;8.02;;
23068;SDS011;11702;50.856;4.348;2022-10-17T17:57:44;13.17;;;8.23;;
23068;SDS011;11702;50.856;4.348;2022-10-17T18:00:11;12.05;;;8.07;;
23068;SDS011;11702;50.856;4.348;2022-10-17T18:02:38;13.25;;;8.05;;
23068;SDS011;11702;50.856;4.348;2022-10-17T18:05:09;14.80;;;8.90;;